createdAt,value
2023-05-23T00:00:38.658Z,18.66
2023-05-23T00:03:06.553Z,18.63
2023-05-23T00:05:34.442Z,18.61
2023-05-23T00:08:02.401Z,18.59
2023-05-23T00:10:30.167Z,18.60
2023-05-23T00:12:58.169Z,18.59
2023-05-23T00:15:27.429Z,18.53
2023-05-23T00:17:55.265Z,18.51
2023-05-23T00:20:23.206Z,18.49
2023-05-23T00:22:50.993Z,18.48
2023-05-23T00:25:21.996Z,18.43
2023-05-23T00:27:49.775Z,18.39
2023-05-23T00:30:17.786Z,18.38
2023-05-23T00:32:46.968Z,18.35
2023-05-23T00:35:14.752Z,18.33
2023-05-23T00:37:43.862Z,18.31
2023-05-23T00:40:12.671Z,18.28
2023-05-23T00:42:40.789Z,18.26
2023-05-23T00:45:09.412Z,18.22
2023-05-23T00:47:37.325Z,18.21
2023-05-23T00:50:08.450Z,18.18
2023-05-23T00:52:37.114Z,18.14
2023-05-23T00:55:06.101Z,18.12
2023-05-23T00:57:34.433Z,18.11
2023-05-23T01:00:02.490Z,18.10
2023-05-23T01:02:33.614Z,18.10
2023-05-23T01:05:02.484Z,18.08
2023-05-23T01:07:31.733Z,17.97
2023-05-23T01:09:59.812Z,18.03
2023-05-23T01:12:35.447Z,18.01
2023-05-23T01:15:08.758Z,18.00
2023-05-23T01:17:56.316Z,17.96
2023-05-23T01:20:29.838Z,17.95
2023-05-23T01:23:22.393Z,17.93
2023-05-23T01:26:05.186Z,17.87
2023-05-23T01:28:38.962Z,17.89
2023-05-23T01:31:11.288Z,17.85
2023-05-23T01:33:41.087Z,17.82
2023-05-23T01:36:10.058Z,17.76
2023-05-23T01:38:37.860Z,17.79
2023-05-23T01:41:05.679Z,17.80
2023-05-23T01:43:35.238Z,17.75
2023-05-23T01:46:04.593Z,17.71
2023-05-23T01:48:33.261Z,17.68
2023-05-23T01:51:01.195Z,17.69
2023-05-23T01:53:30.289Z,17.71
2023-05-23T01:55:58.605Z,17.70
2023-05-23T01:58:26.435Z,17.68
2023-05-23T02:00:55.699Z,17.68
2023-05-23T02:03:23.767Z,17.62
2023-05-23T02:05:51.878Z,17.57
2023-05-23T02:08:19.634Z,17.66
2023-05-23T02:10:47.473Z,17.66
2023-05-23T02:13:15.238Z,17.64
2023-05-23T02:15:43.075Z,17.64
2023-05-23T02:18:13.081Z,17.64
2023-05-23T02:20:41.213Z,17.63
2023-05-23T02:23:09.123Z,17.62
2023-05-23T02:25:37.048Z,17.60
2023-05-23T02:28:04.902Z,17.61
2023-05-23T02:30:32.703Z,17.58
2023-05-23T02:33:00.489Z,17.57
2023-05-23T02:35:29.621Z,17.55
2023-05-23T02:37:57.384Z,17.52
2023-05-23T02:40:25.143Z,17.50
2023-05-23T02:42:52.900Z,17.49
2023-05-23T02:45:20.777Z,17.46
2023-05-23T02:47:48.501Z,17.43
2023-05-23T02:50:16.657Z,17.39
2023-05-23T02:52:45.816Z,17.37
2023-05-23T02:55:13.596Z,17.35
2023-05-23T02:57:41.380Z,17.35
2023-05-23T03:00:12.022Z,17.37
2023-05-23T03:02:39.938Z,17.37
2023-05-23T03:05:08.738Z,17.36
2023-05-23T03:07:36.721Z,17.36
2023-05-23T03:10:06.868Z,17.22
2023-05-23T03:12:34.667Z,17.30
2023-05-23T03:15:02.390Z,17.25
2023-05-23T03:17:30.127Z,17.23
2023-05-23T03:19:57.920Z,17.23
2023-05-23T03:22:25.650Z,17.23
2023-05-23T03:24:53.416Z,17.21
2023-05-23T03:27:22.566Z,17.17
2023-05-23T03:29:50.282Z,17.17
2023-05-23T03:32:18.044Z,17.18
2023-05-23T03:34:46.134Z,17.17
2023-05-23T03:37:13.880Z,17.12
2023-05-23T03:39:41.618Z,17.12
2023-05-23T03:42:09.403Z,17.12
2023-05-23T03:44:38.647Z,17.10
2023-05-23T03:47:07.185Z,16.99
2023-05-23T03:49:35.080Z,17.07
2023-05-23T03:52:02.808Z,17.09
2023-05-23T03:54:30.559Z,17.12
2023-05-23T03:56:58.334Z,17.12
2023-05-23T03:59:26.066Z,17.09
2023-05-23T04:01:55.379Z,17.09
2023-05-23T04:04:25.120Z,17.08
2023-05-23T04:06:53.297Z,17.08
2023-05-23T04:09:21.058Z,17.06
2023-05-23T04:11:49.209Z,17.06
2023-05-23T04:14:17.421Z,17.05
2023-05-23T04:16:45.239Z,17.02
2023-05-23T04:19:14.388Z,17.04
2023-05-23T04:21:42.208Z,17.04
2023-05-23T04:24:09.948Z,17.01
2023-05-23T04:26:37.769Z,17.00
2023-05-23T04:29:06.310Z,16.98
2023-05-23T04:31:35.256Z,16.99
2023-05-23T04:34:03.839Z,16.99
2023-05-23T04:36:33.012Z,16.98
2023-05-23T04:39:00.751Z,16.96
2023-05-23T04:41:28.523Z,16.96
2023-05-23T04:43:58.511Z,16.96
2023-05-23T04:46:26.878Z,16.94
2023-05-23T04:48:55.045Z,16.92
2023-05-23T04:51:22.912Z,16.90
2023-05-23T04:53:52.851Z,16.89
2023-05-23T04:56:22.287Z,16.86
2023-05-23T04:58:50.190Z,16.82
2023-05-23T05:01:18.003Z,16.82
2023-05-23T05:03:45.863Z,16.80
2023-05-23T05:06:14.698Z,16.79
2023-05-23T05:08:42.488Z,16.77
2023-05-23T05:11:11.933Z,16.75
2023-05-23T05:13:39.671Z,16.75
2023-05-23T05:16:07.896Z,16.70
2023-05-23T05:18:36.516Z,16.66
2023-05-23T05:21:04.571Z,16.60
2023-05-23T05:23:33.329Z,16.59
2023-05-23T05:26:01.615Z,16.59
2023-05-23T05:28:30.715Z,16.58
2023-05-23T05:30:58.998Z,16.59
2023-05-23T05:33:28.426Z,16.59
2023-05-23T05:35:56.294Z,16.55
2023-05-23T05:38:24.040Z,16.55
2023-05-23T05:40:51.777Z,16.54
2023-05-23T05:43:19.607Z,16.55
2023-05-23T05:45:48.732Z,16.54
2023-05-23T05:48:16.622Z,16.53
2023-05-23T05:50:45.524Z,16.48
2023-05-23T05:53:13.660Z,16.46
2023-05-23T05:55:41.470Z,16.45
2023-05-23T05:58:09.199Z,16.43
2023-05-23T06:00:42.301Z,16.41
2023-05-23T06:03:12.602Z,16.38
2023-05-23T06:05:40.487Z,16.36
2023-05-23T06:08:08.495Z,16.33
2023-05-23T06:10:39.545Z,16.31
2023-05-23T06:13:07.591Z,16.28
2023-05-23T06:15:35.476Z,16.30
2023-05-23T06:18:03.248Z,16.30
2023-05-23T06:20:32.372Z,16.30
2023-05-23T06:23:00.309Z,16.25
2023-05-23T06:25:28.359Z,16.22
2023-05-23T06:27:56.138Z,16.21
2023-05-23T06:30:24.368Z,16.18
2023-05-23T06:32:52.197Z,16.19
2023-05-23T06:35:19.958Z,16.17
2023-05-23T06:37:49.107Z,16.10
2023-05-23T06:40:16.958Z,16.05
2023-05-23T06:42:44.792Z,16.01
2023-05-23T06:45:15.766Z,16.04
2023-05-23T06:47:45.670Z,15.96
2023-05-23T06:50:13.622Z,16.07
2023-05-23T06:52:42.747Z,16.09
2023-05-23T06:55:14.538Z,16.08
2023-05-23T06:57:42.341Z,16.09
2023-05-23T07:00:11.538Z,16.10
2023-05-23T07:02:39.389Z,16.08
2023-05-23T07:05:07.895Z,16.07
2023-05-23T07:07:35.705Z,16.08
2023-05-23T07:10:03.611Z,16.10
2023-05-23T07:12:34.757Z,16.10
2023-05-23T07:15:02.920Z,16.10
2023-05-23T07:17:30.875Z,16.08
2023-05-23T07:19:58.678Z,16.07
2023-05-23T07:22:26.893Z,16.06
2023-05-23T07:24:54.836Z,16.06
2023-05-23T07:27:22.717Z,16.06
2023-05-23T07:29:51.919Z,15.98
2023-05-23T07:32:19.764Z,16.08
2023-05-23T07:34:47.519Z,16.07
2023-05-23T07:37:15.282Z,16.04
2023-05-23T07:39:43.037Z,15.99
2023-05-23T07:42:10.851Z,15.97
2023-05-23T07:44:38.957Z,15.86
2023-05-23T07:47:08.122Z,15.98
2023-05-23T07:49:35.946Z,15.98
2023-05-23T07:52:03.803Z,15.96
2023-05-23T07:54:31.564Z,15.97
2023-05-23T07:56:59.371Z,15.95
2023-05-23T07:59:27.206Z,15.94
2023-05-23T08:01:55.020Z,15.93
2023-05-23T08:04:24.251Z,15.95
2023-05-23T08:07:00.792Z,15.98
2023-05-23T08:09:32.562Z,15.97
2023-05-23T08:12:00.375Z,15.93
2023-05-23T08:14:42.403Z,15.93
2023-05-23T08:17:16.746Z,15.93
2023-05-23T08:19:46.150Z,15.94
2023-05-23T08:22:13.981Z,15.93
2023-05-23T08:24:41.746Z,15.90
2023-05-23T08:27:09.590Z,15.88
2023-05-23T08:29:37.446Z,15.89
2023-05-23T08:32:05.694Z,15.87
2023-05-23T08:34:33.588Z,15.82
2023-05-23T08:37:02.722Z,15.78
2023-05-23T08:39:30.529Z,15.77
2023-05-23T08:41:58.353Z,15.77
2023-05-23T08:44:26.202Z,15.80
2023-05-23T08:46:55.008Z,15.83
2023-05-23T08:49:24.066Z,15.86
2023-05-23T08:51:56.733Z,15.85
2023-05-23T08:54:27.132Z,15.87
2023-05-23T08:56:54.903Z,15.81
2023-05-23T08:59:23.658Z,15.80
2023-05-23T09:01:53.235Z,15.82
2023-05-23T09:04:21.237Z,15.83
2023-05-23T09:06:49.079Z,15.84
2023-05-23T09:09:17.392Z,15.86
2023-05-23T09:11:47.572Z,15.88
2023-05-23T09:14:18.060Z,15.89
2023-05-23T09:16:49.277Z,15.82
2023-05-23T09:19:17.106Z,15.92
2023-05-23T09:21:45.378Z,15.86
2023-05-23T09:24:13.211Z,15.93
2023-05-23T09:26:41.045Z,15.91
2023-05-23T09:29:10.134Z,15.91
2023-05-23T09:31:37.941Z,15.92
2023-05-23T09:34:06.953Z,15.94
2023-05-23T09:36:36.485Z,15.98
2023-05-23T09:39:06.399Z,15.98
2023-05-23T09:41:35.580Z,15.94
2023-05-23T09:44:07.216Z,15.95
2023-05-23T09:46:38.048Z,15.93
2023-05-23T09:49:17.348Z,15.93
2023-05-23T09:51:45.655Z,15.93
2023-05-23T09:54:13.710Z,15.94
2023-05-23T09:56:43.717Z,15.95
2023-05-23T09:59:14.627Z,15.93
2023-05-23T10:01:48.896Z,15.91
2023-05-23T10:04:21.918Z,15.88
2023-05-23T10:06:53.280Z,15.85
2023-05-23T10:09:24.262Z,15.87
2023-05-23T10:12:31.541Z,15.87
2023-05-23T10:15:04.626Z,15.89
2023-05-23T10:17:41.050Z,15.91
2023-05-23T10:20:12.655Z,15.92
2023-05-23T10:22:41.749Z,15.94
2023-05-23T10:25:10.922Z,15.93
2023-05-23T10:27:39.385Z,15.93
2023-05-23T10:30:08.534Z,15.94
2023-05-23T10:32:40.548Z,15.97
2023-05-23T10:35:16.722Z,15.98
2023-05-23T10:37:51.090Z,15.94
2023-05-23T10:40:25.648Z,16.02
2023-05-23T10:43:01.306Z,16.03
2023-05-23T10:45:29.521Z,16.05
2023-05-23T10:48:01.515Z,16.04
2023-05-23T10:50:34.011Z,16.08
2023-05-23T10:53:03.191Z,16.08
2023-05-23T10:55:33.674Z,16.13
2023-05-23T10:58:11.879Z,16.13
2023-05-23T11:00:40.002Z,16.14
2023-05-23T11:03:11.618Z,16.15
2023-05-23T11:05:49.196Z,16.17
2023-05-23T11:08:17.886Z,16.17
2023-05-23T11:11:01.158Z,16.19
2023-05-23T11:13:56.297Z,16.21
2023-05-23T11:16:28.960Z,16.25
2023-05-23T11:19:28.041Z,16.27
2023-05-23T11:22:01.154Z,16.31
2023-05-23T11:24:52.248Z,16.33
2023-05-23T11:27:27.468Z,16.33
2023-05-23T11:30:00.335Z,16.31
2023-05-23T11:32:30.754Z,16.32
2023-05-23T11:35:02.499Z,16.33
2023-05-23T11:37:31.015Z,16.33
2023-05-23T11:39:59.283Z,16.35
2023-05-23T11:42:27.152Z,16.39
2023-05-23T11:44:55.338Z,16.37
2023-05-23T11:47:23.156Z,16.41
2023-05-23T11:49:50.923Z,16.44
2023-05-23T11:52:20.089Z,16.48
2023-05-23T11:54:47.889Z,16.50
2023-05-23T11:57:15.656Z,16.50
2023-05-23T11:59:43.672Z,16.53
2023-05-23T12:02:11.586Z,16.55
2023-05-23T12:04:39.585Z,16.57
2023-05-23T12:07:08.387Z,16.58
2023-05-23T12:09:44.522Z,16.61
2023-05-23T12:12:13.641Z,16.64
2023-05-23T12:14:44.837Z,16.67
2023-05-23T12:17:13.782Z,16.69
2023-05-23T12:19:46.691Z,16.72
2023-05-23T12:22:14.477Z,16.75
2023-05-23T12:24:48.150Z,16.74
2023-05-23T12:27:18.590Z,16.73
2023-05-23T12:29:52.592Z,16.71
2023-05-23T12:32:20.506Z,16.72
2023-05-23T12:34:50.329Z,16.74
2023-05-23T12:37:20.304Z,16.76
2023-05-23T12:39:49.733Z,16.81
2023-05-23T12:42:17.565Z,16.83
2023-05-23T12:44:46.178Z,16.86
2023-05-23T12:47:15.083Z,16.89
2023-05-23T12:49:44.809Z,16.92
2023-05-23T12:52:12.678Z,16.93
2023-05-23T12:54:40.556Z,16.94
2023-05-23T12:57:09.832Z,16.96
2023-05-23T12:59:37.558Z,16.95
2023-05-23T13:02:05.419Z,16.94
2023-05-23T13:04:33.262Z,16.95
2023-05-23T13:07:01.133Z,16.96
2023-05-23T13:09:28.862Z,16.97
2023-05-23T13:11:56.832Z,17.00
2023-05-23T13:14:25.980Z,17.01
2023-05-23T13:16:53.813Z,17.03
2023-05-23T13:19:21.676Z,17.04
2023-05-23T13:21:50.086Z,17.04
2023-05-23T13:24:18.075Z,17.03
2023-05-23T13:26:45.901Z,17.06
2023-05-23T13:29:13.831Z,17.07
2023-05-23T13:31:43.043Z,17.08
2023-05-23T13:34:11.002Z,17.10
2023-05-23T13:36:38.826Z,17.11
2023-05-23T13:39:07.125Z,17.11
2023-05-23T13:41:34.928Z,17.13
2023-05-23T13:44:02.710Z,17.13
2023-05-23T13:46:30.820Z,17.14
2023-05-23T13:49:00.041Z,17.15
2023-05-23T13:51:27.852Z,17.17
2023-05-23T13:53:55.694Z,17.19
2023-05-23T13:56:24.402Z,17.21
2023-05-23T13:58:52.185Z,17.24
2023-05-23T14:01:20.024Z,17.23
2023-05-23T14:03:47.852Z,17.25
2023-05-23T14:06:17.023Z,17.26
2023-05-23T14:08:44.810Z,17.28
2023-05-23T14:11:12.561Z,17.29
2023-05-23T14:13:40.376Z,17.31
2023-05-23T14:16:08.258Z,17.32
2023-05-23T14:18:36.026Z,17.32
2023-05-23T14:21:03.820Z,17.34
2023-05-23T14:23:34.068Z,17.36
2023-05-23T14:26:01.899Z,17.32
2023-05-23T14:28:29.709Z,17.31
2023-05-23T14:30:59.083Z,17.33
2023-05-23T14:33:27.107Z,17.27
2023-05-23T14:35:54.922Z,17.36
2023-05-23T14:38:22.661Z,17.40
2023-05-23T14:40:51.806Z,17.42
2023-05-23T14:43:19.601Z,17.44
2023-05-23T14:45:47.447Z,17.46
2023-05-23T14:48:15.489Z,17.47
2023-05-23T14:50:43.459Z,17.46
2023-05-23T14:53:11.232Z,17.47
2023-05-23T14:55:39.119Z,17.45
2023-05-23T14:58:08.367Z,17.46
2023-05-23T15:00:36.073Z,17.46
2023-05-23T15:03:04.789Z,17.44
2023-05-23T15:05:32.795Z,17.44
2023-05-23T15:08:00.562Z,17.44
2023-05-23T15:10:28.307Z,17.45
2023-05-23T15:12:56.213Z,17.45
2023-05-23T15:15:27.085Z,17.44
2023-05-23T15:17:54.896Z,17.44
2023-05-23T15:20:22.702Z,17.43
2023-05-23T15:22:50.429Z,17.44
2023-05-23T15:25:27.002Z,17.43
2023-05-23T15:28:01.862Z,17.40
2023-05-23T15:30:31.130Z,17.44
2023-05-23T15:33:01.355Z,17.44
2023-05-23T15:35:29.640Z,17.46
2023-05-23T15:37:57.463Z,17.47
2023-05-23T15:40:25.188Z,17.49
2023-05-23T15:42:52.986Z,17.52
2023-05-23T15:45:20.854Z,17.54
2023-05-23T15:47:50.042Z,17.54
2023-05-23T15:50:18.865Z,17.54
2023-05-23T15:52:46.646Z,17.54
2023-05-23T15:55:14.449Z,17.53
2023-05-23T15:57:42.189Z,17.52
2023-05-23T16:00:11.049Z,17.52
2023-05-23T16:02:39.074Z,17.53
2023-05-23T16:05:09.124Z,17.52
2023-05-23T16:07:36.924Z,17.50
2023-05-23T16:10:05.082Z,17.45
2023-05-23T16:12:32.830Z,17.42
2023-05-23T16:15:02.502Z,17.37
2023-05-23T16:17:30.286Z,17.35
2023-05-23T16:19:58.071Z,17.35
2023-05-23T16:22:27.187Z,17.34
2023-05-23T16:24:55.613Z,17.34
2023-05-23T16:27:24.228Z,17.37
2023-05-23T16:29:51.997Z,17.38
2023-05-23T16:32:19.754Z,17.37
2023-05-23T16:34:52.839Z,17.34
2023-05-23T16:37:21.971Z,17.33
2023-05-23T16:39:51.124Z,17.33
2023-05-23T16:42:18.967Z,17.31
2023-05-23T16:44:46.835Z,17.31
2023-05-23T16:47:14.636Z,17.30
2023-05-23T16:49:42.452Z,17.29
2023-05-23T16:52:10.245Z,17.27
2023-05-23T16:54:38.058Z,17.27
2023-05-23T16:57:07.722Z,17.28
2023-05-23T16:59:35.564Z,17.19
2023-05-23T17:02:03.486Z,17.28
2023-05-23T17:04:31.312Z,17.27
2023-05-23T17:06:59.037Z,17.26
2023-05-23T17:09:26.789Z,17.24
2023-05-23T17:11:54.658Z,17.22
2023-05-23T17:14:23.787Z,17.20
2023-05-23T17:16:51.566Z,17.20
2023-05-23T17:19:19.378Z,17.19
2023-05-23T17:21:47.205Z,17.19
2023-05-23T17:24:15.065Z,17.17
2023-05-23T17:26:42.883Z,17.16
2023-05-23T17:29:10.847Z,17.16
2023-05-23T17:31:40.096Z,17.16
2023-05-23T17:34:07.952Z,17.12
2023-05-23T17:36:36.033Z,17.09
2023-05-23T17:39:03.855Z,17.06
2023-05-23T17:41:31.809Z,17.01
2023-05-23T17:43:59.614Z,16.97
2023-05-23T17:46:27.411Z,16.95
2023-05-23T17:48:56.590Z,16.94
2023-05-23T17:51:24.559Z,16.95
2023-05-23T17:53:53.805Z,16.96
2023-05-23T17:56:23.280Z,16.98
2023-05-23T17:58:51.369Z,16.98
2023-05-23T18:01:19.697Z,16.99
2023-05-23T18:03:48.956Z,17.00
2023-05-23T18:06:18.329Z,17.00
2023-05-23T18:08:46.067Z,16.99
2023-05-23T18:11:14.114Z,16.96
2023-05-23T18:13:41.846Z,16.98
2023-05-23T18:16:09.631Z,17.00
2023-05-23T18:18:37.346Z,17.00
2023-05-23T18:21:06.188Z,16.98
2023-05-23T18:23:35.584Z,16.98
2023-05-23T18:26:03.644Z,16.97
2023-05-23T18:28:31.475Z,16.95
2023-05-23T18:30:59.231Z,16.95
2023-05-23T18:33:27.699Z,16.92
2023-05-23T18:35:55.648Z,16.89
2023-05-23T18:38:23.400Z,16.88
2023-05-23T18:40:52.738Z,16.87
2023-05-23T18:43:21.049Z,16.85
2023-05-23T18:45:48.801Z,16.83
2023-05-23T18:48:16.727Z,16.83
2023-05-23T18:50:44.683Z,16.82
2023-05-23T18:53:12.634Z,16.84
2023-05-23T18:55:40.365Z,16.82
2023-05-23T18:58:09.463Z,16.83
2023-05-23T19:00:37.229Z,16.83
2023-05-23T19:03:05.457Z,16.83
2023-05-23T19:05:33.348Z,16.82
2023-05-23T19:08:01.120Z,16.81
2023-05-23T19:10:28.904Z,16.79
2023-05-23T19:12:56.678Z,16.76
2023-05-23T19:15:25.845Z,16.75
2023-05-23T19:17:53.666Z,16.73
2023-05-23T19:20:22.046Z,16.71
2023-05-23T19:22:51.416Z,16.70
2023-05-23T19:25:20.765Z,16.69
2023-05-23T19:27:48.552Z,16.69
2023-05-23T19:30:16.715Z,16.67
2023-05-23T19:32:45.923Z,16.65
2023-05-23T19:35:16.536Z,16.65
2023-05-23T19:37:45.179Z,16.62
2023-05-23T19:40:13.729Z,16.64
2023-05-23T19:42:41.515Z,16.62
2023-05-23T19:45:09.972Z,16.60
2023-05-23T19:47:37.933Z,16.60
2023-05-23T19:50:08.258Z,16.58
2023-05-23T19:52:36.034Z,16.57
2023-05-23T19:55:04.142Z,16.56
2023-05-23T19:57:32.192Z,16.54
2023-05-23T20:00:00.014Z,16.52
2023-05-23T20:02:27.876Z,16.52
2023-05-23T20:04:55.796Z,16.49
2023-05-23T20:07:24.954Z,16.48
2023-05-23T20:09:52.761Z,16.46
2023-05-23T20:12:20.510Z,16.45
2023-05-23T20:14:48.315Z,16.44
2023-05-23T20:17:16.065Z,16.42
2023-05-23T20:19:43.887Z,16.39
2023-05-23T20:22:11.619Z,16.37
2023-05-23T20:24:40.800Z,16.33
2023-05-23T20:27:08.719Z,16.28
2023-05-23T20:29:36.532Z,16.18
2023-05-23T20:32:04.342Z,16.19
2023-05-23T20:34:32.461Z,16.17
2023-05-23T20:37:01.501Z,16.15
2023-05-23T20:39:29.649Z,16.14
2023-05-23T20:41:59.702Z,16.14
2023-05-23T20:44:27.510Z,16.14
2023-05-23T20:46:57.026Z,16.13
2023-05-23T20:49:24.930Z,16.11
2023-05-23T20:51:52.785Z,16.09
2023-05-23T20:54:21.035Z,16.10
2023-05-23T20:56:48.796Z,16.09
2023-05-23T20:59:18.006Z,16.10
2023-05-23T21:01:45.864Z,15.99
2023-05-23T21:04:13.978Z,16.07
2023-05-23T21:06:41.720Z,16.05
2023-05-23T21:09:09.860Z,16.04
2023-05-23T21:11:37.624Z,16.01
2023-05-23T21:14:05.424Z,16.02
2023-05-23T21:16:34.603Z,16.03
2023-05-23T21:19:02.397Z,16.01
2023-05-23T21:21:30.219Z,16.01
2023-05-23T21:23:57.993Z,15.99
2023-05-23T21:26:25.713Z,15.98
2023-05-23T21:28:53.460Z,15.96
2023-05-23T21:31:33.158Z,15.95
2023-05-23T21:34:22.425Z,15.95
2023-05-23T21:36:51.926Z,15.92
2023-05-23T21:39:19.895Z,15.92
2023-05-23T21:41:47.725Z,15.90
2023-05-23T21:44:17.610Z,15.90
2023-05-23T21:46:45.786Z,15.89
2023-05-23T21:49:15.156Z,15.89
2023-05-23T21:51:44.088Z,15.88
2023-05-23T21:54:11.877Z,15.87
2023-05-23T21:56:39.594Z,15.84
2023-05-23T21:59:07.708Z,15.83
2023-05-23T22:01:36.036Z,15.82
2023-05-23T22:04:03.870Z,15.80
2023-05-23T22:06:33.540Z,15.78
2023-05-23T22:09:01.692Z,15.77
2023-05-23T22:11:33.991Z,15.77
2023-05-23T22:14:02.266Z,15.73
2023-05-23T22:16:32.838Z,15.73
2023-05-23T22:19:02.114Z,15.72
2023-05-23T22:21:30.154Z,15.70
2023-05-23T22:23:59.657Z,15.69
2023-05-23T22:26:28.120Z,15.67
2023-05-23T22:28:56.493Z,15.66
2023-05-23T22:31:24.948Z,15.66
2023-05-23T22:33:52.887Z,15.63
2023-05-23T22:36:21.984Z,15.62
2023-05-23T22:38:50.045Z,15.60
2023-05-23T22:41:19.411Z,15.59
2023-05-23T22:43:47.485Z,15.56
2023-05-23T22:46:15.364Z,15.55
2023-05-23T22:48:43.316Z,15.52
2023-05-23T22:51:14.843Z,15.51
2023-05-23T22:53:43.274Z,15.51
2023-05-23T22:56:11.074Z,15.50
2023-05-23T22:58:40.190Z,15.48
2023-05-23T23:01:08.018Z,15.46
2023-05-23T23:03:36.022Z,15.48
2023-05-23T23:06:06.168Z,15.45
2023-05-23T23:08:34.257Z,15.44
2023-05-23T23:11:02.064Z,15.43
2023-05-23T23:13:29.890Z,15.41
2023-05-23T23:15:59.669Z,15.41
2023-05-23T23:18:27.858Z,15.39
2023-05-23T23:20:55.593Z,15.38
2023-05-23T23:23:23.440Z,15.37
2023-05-23T23:25:52.193Z,15.28
2023-05-23T23:28:20.751Z,15.34
2023-05-23T23:30:48.675Z,15.35
2023-05-23T23:33:17.835Z,15.35
2023-05-23T23:35:48.592Z,15.34
2023-05-23T23:38:16.611Z,15.33
2023-05-23T23:40:45.686Z,15.31
2023-05-23T23:43:13.934Z,15.30
2023-05-23T23:45:41.731Z,15.29
2023-05-23T23:48:09.614Z,15.28
2023-05-23T23:50:38.869Z,15.26
2023-05-23T23:53:06.581Z,15.24
2023-05-23T23:55:34.433Z,15.23
2023-05-23T23:58:02.174Z,15.21
